sensor_id;sensor_type;location;lat;lon;timestamp;P1;durP1;ratioP1;P2;durP2;ratioP2
12784;SDS011;6456;42.680;23.260;2023-12-22T00:01:58;34.53;;;22.90;;
12784;SDS011;6456;42.680;23.260;2023-12-22T00:04:26;34.03;;;23.63;;
12784;SDS011;6456;42.680;23.260;2023-12-22T00:06:53;35.80;;;23.43;;
12784;SDS011;6456;42.680;23.260;2023-12-22T00:09:20;34.70;;;23.90;;
12784;SDS011;6456;42.680;23.260;2023-12-22T00:11:48;37.90;;;25.00;;
12784;SDS011;6456;42.680;23.260;2023-12-22T00:14:16;37.83;;;26.40;;
12784;SDS011;6456;42.680;23.260;2023-12-22T00:16:45;45.90;;;27.80;;
12784;SDS011;6456;42.680;23.260;2023-12-22T00:19:14;45.73;;;29.20;;
12784;SDS011;6456;42.680;23.260;2023-12-22T00:21:42;45.27;;;29.23;;
12784;SDS011;6456;42.680;23.260;2023-12-22T00:24:09;44.23;;;27.70;;
12784;SDS011;6456;42.680;23.260;2023-12-22T00:26:36;39.30;;;26.20;;
12784;SDS011;6456;42.680;23.260;2023-12-22T00:29:03;40.60;;;27.10;;
12784;SDS011;6456;42.680;23.260;2023-12-22T00:31:34;39.87;;;25.73;;
12784;SDS011;6456;42.680;23.260;2023-12-22T00:34:01;40.50;;;24.93;;
12784;SDS011;6456;42.680;23.260;2023-12-22T00:36:31;36.43;;;24.63;;
12784;SDS011;6456;42.680;23.260;2023-12-22T00:38:58;38.40;;;26.00;;
12784;SDS011;6456;42.680;23.260;2023-12-22T00:41:25;33.47;;;21.97;;
12784;SDS011;6456;42.680;23.260;2023-12-22T00:43:53;34.50;;;23.33;;
12784;SDS011;6456;42.680;23.260;2023-12-22T00:46:20;34.03;;;21.93;;
12784;SDS011;6456;42.680;23.260;2023-12-22T00:48:48;31.80;;;22.13;;
12784;SDS011;6456;42.680;23.260;2023-12-22T00:51:16;31.27;;;19.53;;
12784;SDS011;6456;42.680;23.260;2023-12-22T00:53:43;28.00;;;19.43;;
12784;SDS011;6456;42.680;23.260;2023-12-22T00:56:10;30.17;;;21.50;;
12784;SDS011;6456;42.680;23.260;2023-12-22T00:58:38;28.30;;;20.10;;
12784;SDS011;6456;42.680;23.260;2023-12-22T01:01:05;28.77;;;18.70;;
12784;SDS011;6456;42.680;23.260;2023-12-22T01:03:33;25.60;;;17.97;;
12784;SDS011;6456;42.680;23.260;2023-12-22T01:06:01;29.00;;;19.63;;
12784;SDS011;6456;42.680;23.260;2023-12-22T01:08:28;27.27;;;17.27;;
12784;SDS011;6456;42.680;23.260;2023-12-22T01:10:55;28.30;;;18.47;;
12784;SDS011;6456;42.680;23.260;2023-12-22T01:13:22;23.33;;;16.57;;
12784;SDS011;6456;42.680;23.260;2023-12-22T01:15:54;23.50;;;16.03;;
12784;SDS011;6456;42.680;23.260;2023-12-22T01:18:21;26.33;;;16.97;;
12784;SDS011;6456;42.680;23.260;2023-12-22T01:20:50;22.80;;;17.07;;
12784;SDS011;6456;42.680;23.260;2023-12-22T01:23:18;24.30;;;16.43;;
12784;SDS011;6456;42.680;23.260;2023-12-22T01:25:51;26.50;;;16.90;;
12784;SDS011;6456;42.680;23.260;2023-12-22T01:28:18;22.03;;;15.43;;
12784;SDS011;6456;42.680;23.260;2023-12-22T01:30:46;22.60;;;16.63;;
12784;SDS011;6456;42.680;23.260;2023-12-22T01:33:14;23.27;;;15.90;;
12784;SDS011;6456;42.680;23.260;2023-12-22T01:35:41;22.87;;;15.97;;
12784;SDS011;6456;42.680;23.260;2023-12-22T01:38:09;23.47;;;16.00;;
12784;SDS011;6456;42.680;23.260;2023-12-22T01:40:37;23.17;;;15.13;;
12784;SDS011;6456;42.680;23.260;2023-12-22T01:43:05;23.87;;;16.30;;
12784;SDS011;6456;42.680;23.260;2023-12-22T01:45:32;21.47;;;15.37;;
12784;SDS011;6456;42.680;23.260;2023-12-22T01:48:02;25.10;;;16.00;;
12784;SDS011;6456;42.680;23.260;2023-12-22T01:50:30;21.03;;;14.90;;
12784;SDS011;6456;42.680;23.260;2023-12-22T01:52:58;22.67;;;14.67;;
12784;SDS011;6456;42.680;23.260;2023-12-22T01:55:24;20.27;;;14.00;;
12784;SDS011;6456;42.680;23.260;2023-12-22T01:57:55;17.97;;;14.03;;
12784;SDS011;6456;42.680;23.260;2023-12-22T02:00:23;19.63;;;14.40;;
12784;SDS011;6456;42.680;23.260;2023-12-22T02:02:50;20.87;;;14.53;;
12784;SDS011;6456;42.680;23.260;2023-12-22T02:05:18;20.33;;;15.00;;
12784;SDS011;6456;42.680;23.260;2023-12-22T02:07:45;18.80;;;14.00;;
12784;SDS011;6456;42.680;23.260;2023-12-22T02:10:12;22.90;;;14.43;;
12784;SDS011;6456;42.680;23.260;2023-12-22T02:12:39;19.10;;;13.13;;
12784;SDS011;6456;42.680;23.260;2023-12-22T02:15:09;21.03;;;13.60;;
12784;SDS011;6456;42.680;23.260;2023-12-22T02:17:38;20.17;;;14.13;;
12784;SDS011;6456;42.680;23.260;2023-12-22T02:20:10;18.87;;;13.30;;
12784;SDS011;6456;42.680;23.260;2023-12-22T02:22:39;18.87;;;12.97;;
12784;SDS011;6456;42.680;23.260;2023-12-22T02:25:06;19.17;;;12.83;;
12784;SDS011;6456;42.680;23.260;2023-12-22T02:27:34;17.80;;;12.73;;
12784;SDS011;6456;42.680;23.260;2023-12-22T02:30:07;20.43;;;13.57;;
12784;SDS011;6456;42.680;23.260;2023-12-22T02:32:40;21.40;;;13.97;;
12784;SDS011;6456;42.680;23.260;2023-12-22T02:35:10;17.53;;;13.87;;
12784;SDS011;6456;42.680;23.260;2023-12-22T02:37:43;22.27;;;14.27;;
12784;SDS011;6456;42.680;23.260;2023-12-22T02:40:13;20.77;;;14.53;;
12784;SDS011;6456;42.680;23.260;2023-12-22T02:42:41;20.77;;;13.67;;
12784;SDS011;6456;42.680;23.260;2023-12-22T02:45:12;20.03;;;14.27;;
12784;SDS011;6456;42.680;23.260;2023-12-22T02:47:40;18.53;;;13.47;;
12784;SDS011;6456;42.680;23.260;2023-12-22T02:50:08;21.77;;;12.83;;
12784;SDS011;6456;42.680;23.260;2023-12-22T02:52:36;20.20;;;14.07;;
12784;SDS011;6456;42.680;23.260;2023-12-22T02:55:05;18.17;;;13.77;;
12784;SDS011;6456;42.680;23.260;2023-12-22T02:57:32;23.90;;;14.30;;
12784;SDS011;6456;42.680;23.260;2023-12-22T02:59:59;18.30;;;12.77;;
12784;SDS011;6456;42.680;23.260;2023-12-22T03:02:26;22.70;;;13.80;;
12784;SDS011;6456;42.680;23.260;2023-12-22T03:04:54;21.43;;;13.60;;
12784;SDS011;6456;42.680;23.260;2023-12-22T03:07:21;20.97;;;14.30;;
12784;SDS011;6456;42.680;23.260;2023-12-22T03:09:48;20.10;;;14.00;;
12784;SDS011;6456;42.680;23.260;2023-12-22T03:12:16;19.40;;;14.33;;
12784;SDS011;6456;42.680;23.260;2023-12-22T03:14:43;18.90;;;12.87;;
12784;SDS011;6456;42.680;23.260;2023-12-22T03:17:10;22.33;;;13.47;;
12784;SDS011;6456;42.680;23.260;2023-12-22T03:19:37;20.63;;;13.80;;
12784;SDS011;6456;42.680;23.260;2023-12-22T03:22:05;19.67;;;13.67;;
12784;SDS011;6456;42.680;23.260;2023-12-22T03:24:32;21.73;;;13.97;;
12784;SDS011;6456;42.680;23.260;2023-12-22T03:27:00;22.83;;;15.40;;
12784;SDS011;6456;42.680;23.260;2023-12-22T03:29:28;24.70;;;15.60;;
12784;SDS011;6456;42.680;23.260;2023-12-22T03:31:55;23.53;;;15.73;;
12784;SDS011;6456;42.680;23.260;2023-12-22T03:34:22;21.87;;;14.70;;
12784;SDS011;6456;42.680;23.260;2023-12-22T03:36:49;21.90;;;14.80;;
12784;SDS011;6456;42.680;23.260;2023-12-22T03:39:17;23.10;;;15.77;;
12784;SDS011;6456;42.680;23.260;2023-12-22T03:41:44;22.90;;;15.30;;
12784;SDS011;6456;42.680;23.260;2023-12-22T03:44:11;22.27;;;15.63;;
12784;SDS011;6456;42.680;23.260;2023-12-22T03:46:39;22.57;;;15.47;;
12784;SDS011;6456;42.680;23.260;2023-12-22T03:49:06;23.23;;;15.50;;
12784;SDS011;6456;42.680;23.260;2023-12-22T03:51:33;23.70;;;16.87;;
12784;SDS011;6456;42.680;23.260;2023-12-22T03:54:00;26.93;;;17.00;;
12784;SDS011;6456;42.680;23.260;2023-12-22T03:56:27;28.13;;;17.00;;
12784;SDS011;6456;42.680;23.260;2023-12-22T03:58:55;23.83;;;16.80;;
12784;SDS011;6456;42.680;23.260;2023-12-22T04:01:22;25.40;;;16.50;;
12784;SDS011;6456;42.680;23.260;2023-12-22T04:03:50;24.70;;;17.17;;
12784;SDS011;6456;42.680;23.260;2023-12-22T04:06:17;23.90;;;15.97;;
12784;SDS011;6456;42.680;23.260;2023-12-22T04:08:44;24.50;;;17.27;;
12784;SDS011;6456;42.680;23.260;2023-12-22T04:11:11;24.40;;;17.03;;
12784;SDS011;6456;42.680;23.260;2023-12-22T04:13:38;23.90;;;16.47;;
12784;SDS011;6456;42.680;23.260;2023-12-22T04:16:06;23.23;;;15.93;;
12784;SDS011;6456;42.680;23.260;2023-12-22T04:18:32;23.47;;;15.97;;
12784;SDS011;6456;42.680;23.260;2023-12-22T04:21:01;22.17;;;15.57;;
12784;SDS011;6456;42.680;23.260;2023-12-22T04:23:28;21.27;;;15.80;;
12784;SDS011;6456;42.680;23.260;2023-12-22T04:25:55;24.73;;;15.67;;
12784;SDS011;6456;42.680;23.260;2023-12-22T04:28:22;22.50;;;16.33;;
12784;SDS011;6456;42.680;23.260;2023-12-22T04:30:49;23.07;;;15.10;;
12784;SDS011;6456;42.680;23.260;2023-12-22T04:33:16;22.07;;;15.47;;
12784;SDS011;6456;42.680;23.260;2023-12-22T04:35:43;21.27;;;14.90;;
12784;SDS011;6456;42.680;23.260;2023-12-22T04:38:11;20.50;;;14.57;;
12784;SDS011;6456;42.680;23.260;2023-12-22T04:40:38;23.90;;;15.63;;
12784;SDS011;6456;42.680;23.260;2023-12-22T04:43:06;20.43;;;15.67;;
12784;SDS011;6456;42.680;23.260;2023-12-22T04:45:33;23.27;;;15.30;;
12784;SDS011;6456;42.680;23.260;2023-12-22T04:48:00;20.37;;;14.77;;
12784;SDS011;6456;42.680;23.260;2023-12-22T04:50:27;20.80;;;15.03;;
12784;SDS011;6456;42.680;23.260;2023-12-22T04:52:54;24.47;;;15.00;;
12784;SDS011;6456;42.680;23.260;2023-12-22T04:55:23;19.20;;;14.33;;
12784;SDS011;6456;42.680;23.260;2023-12-22T04:57:52;19.07;;;14.50;;
12784;SDS011;6456;42.680;23.260;2023-12-22T05:00:19;23.13;;;15.23;;
12784;SDS011;6456;42.680;23.260;2023-12-22T05:02:46;23.83;;;18.17;;
12784;SDS011;6456;42.680;23.260;2023-12-22T05:05:13;32.40;;;21.80;;
12784;SDS011;6456;42.680;23.260;2023-12-22T05:07:40;25.00;;;17.30;;
12784;SDS011;6456;42.680;23.260;2023-12-22T05:10:08;22.53;;;15.70;;
12784;SDS011;6456;42.680;23.260;2023-12-22T05:12:36;20.73;;;16.33;;
12784;SDS011;6456;42.680;23.260;2023-12-22T05:15:04;19.43;;;13.23;;
12784;SDS011;6456;42.680;23.260;2023-12-22T05:17:31;18.77;;;12.87;;
12784;SDS011;6456;42.680;23.260;2023-12-22T05:19:59;19.43;;;13.57;;
12784;SDS011;6456;42.680;23.260;2023-12-22T05:22:26;7.83;;;6.00;;
12784;SDS011;6456;42.680;23.260;2023-12-22T05:24:55;13.93;;;9.83;;
12784;SDS011;6456;42.680;23.260;2023-12-22T05:27:22;8.77;;;6.07;;
12784;SDS011;6456;42.680;23.260;2023-12-22T05:29:50;5.10;;;4.60;;
12784;SDS011;6456;42.680;23.260;2023-12-22T05:32:17;2.97;;;2.67;;
12784;SDS011;6456;42.680;23.260;2023-12-22T05:34:45;1.90;;;1.80;;
12784;SDS011;6456;42.680;23.260;2023-12-22T05:37:12;1.70;;;1.60;;
12784;SDS011;6456;42.680;23.260;2023-12-22T05:39:39;1.97;;;1.80;;
12784;SDS011;6456;42.680;23.260;2023-12-22T05:42:06;1.90;;;1.80;;
12784;SDS011;6456;42.680;23.260;2023-12-22T05:44:33;2.30;;;1.90;;
12784;SDS011;6456;42.680;23.260;2023-12-22T05:47:01;1.70;;;1.60;;
12784;SDS011;6456;42.680;23.260;2023-12-22T05:49:28;2.10;;;1.90;;
12784;SDS011;6456;42.680;23.260;2023-12-22T05:51:55;1.80;;;1.70;;
12784;SDS011;6456;42.680;23.260;2023-12-22T05:54:22;1.97;;;1.80;;
12784;SDS011;6456;42.680;23.260;2023-12-22T05:56:50;1.60;;;1.50;;
12784;SDS011;6456;42.680;23.260;2023-12-22T05:59:18;1.50;;;1.40;;
12784;SDS011;6456;42.680;23.260;2023-12-22T06:01:45;2.07;;;1.90;;
12784;SDS011;6456;42.680;23.260;2023-12-22T06:04:14;1.60;;;1.50;;
12784;SDS011;6456;42.680;23.260;2023-12-22T06:06:41;1.70;;;1.60;;
12784;SDS011;6456;42.680;23.260;2023-12-22T06:09:08;1.90;;;1.80;;
12784;SDS011;6456;42.680;23.260;2023-12-22T06:11:37;2.80;;;2.60;;
12784;SDS011;6456;42.680;23.260;2023-12-22T06:14:04;1.90;;;1.80;;
12784;SDS011;6456;42.680;23.260;2023-12-22T06:16:31;3.00;;;2.10;;
12784;SDS011;6456;42.680;23.260;2023-12-22T06:18:58;14.43;;;10.13;;
12784;SDS011;6456;42.680;23.260;2023-12-22T06:21:27;16.13;;;10.90;;
12784;SDS011;6456;42.680;23.260;2023-12-22T06:23:54;13.13;;;10.13;;
12784;SDS011;6456;42.680;23.260;2023-12-22T06:26:21;15.67;;;11.03;;
12784;SDS011;6456;42.680;23.260;2023-12-22T06:28:48;14.90;;;10.70;;
12784;SDS011;6456;42.680;23.260;2023-12-22T06:31:18;13.73;;;10.97;;
12784;SDS011;6456;42.680;23.260;2023-12-22T06:33:47;16.43;;;11.67;;
12784;SDS011;6456;42.680;23.260;2023-12-22T06:36:18;13.17;;;10.27;;
12784;SDS011;6456;42.680;23.260;2023-12-22T06:38:47;16.40;;;10.80;;
12784;SDS011;6456;42.680;23.260;2023-12-22T06:41:20;14.20;;;10.50;;
12784;SDS011;6456;42.680;23.260;2023-12-22T06:43:48;14.90;;;11.83;;
12784;SDS011;6456;42.680;23.260;2023-12-22T06:46:16;16.40;;;11.13;;
12784;SDS011;6456;42.680;23.260;2023-12-22T06:48:43;15.60;;;11.40;;
12784;SDS011;6456;42.680;23.260;2023-12-22T06:51:16;16.40;;;12.00;;
12784;SDS011;6456;42.680;23.260;2023-12-22T06:53:44;12.23;;;10.27;;
12784;SDS011;6456;42.680;23.260;2023-12-22T06:56:16;14.07;;;9.60;;
12784;SDS011;6456;42.680;23.260;2023-12-22T06:58:44;16.10;;;10.07;;
12784;SDS011;6456;42.680;23.260;2023-12-22T07:01:17;13.53;;;10.40;;
12784;SDS011;6456;42.680;23.260;2023-12-22T07:03:46;15.90;;;10.63;;
12784;SDS011;6456;42.680;23.260;2023-12-22T07:06:14;14.53;;;11.27;;
12784;SDS011;6456;42.680;23.260;2023-12-22T07:08:41;15.10;;;10.80;;
12784;SDS011;6456;42.680;23.260;2023-12-22T07:11:09;17.07;;;12.27;;
12784;SDS011;6456;42.680;23.260;2023-12-22T07:13:37;17.93;;;12.70;;
12784;SDS011;6456;42.680;23.260;2023-12-22T07:16:05;18.87;;;13.10;;
12784;SDS011;6456;42.680;23.260;2023-12-22T07:18:32;20.47;;;13.40;;
12784;SDS011;6456;42.680;23.260;2023-12-22T07:21:00;21.57;;;14.70;;
12784;SDS011;6456;42.680;23.260;2023-12-22T07:23:27;18.23;;;13.60;;
12784;SDS011;6456;42.680;23.260;2023-12-22T07:25:54;17.83;;;12.83;;
12784;SDS011;6456;42.680;23.260;2023-12-22T07:28:21;16.67;;;12.17;;
12784;SDS011;6456;42.680;23.260;2023-12-22T07:30:51;19.10;;;14.13;;
12784;SDS011;6456;42.680;23.260;2023-12-22T07:33:20;18.00;;;13.73;;
12784;SDS011;6456;42.680;23.260;2023-12-22T07:35:47;19.37;;;14.47;;
12784;SDS011;6456;42.680;23.260;2023-12-22T07:38:14;17.73;;;13.43;;
12784;SDS011;6456;42.680;23.260;2023-12-22T07:40:41;20.53;;;14.00;;
12784;SDS011;6456;42.680;23.260;2023-12-22T07:43:08;20.13;;;14.80;;
12784;SDS011;6456;42.680;23.260;2023-12-22T07:45:35;20.13;;;15.50;;
12784;SDS011;6456;42.680;23.260;2023-12-22T07:48:04;21.33;;;15.03;;
12784;SDS011;6456;42.680;23.260;2023-12-22T07:50:33;24.50;;;16.00;;
12784;SDS011;6456;42.680;23.260;2023-12-22T07:53:00;23.30;;;16.60;;
12784;SDS011;6456;42.680;23.260;2023-12-22T07:55:27;24.67;;;17.83;;
12784;SDS011;6456;42.680;23.260;2023-12-22T07:58:03;22.67;;;15.37;;
12784;SDS011;6456;42.680;23.260;2023-12-22T08:00:30;21.13;;;14.63;;
12784;SDS011;6456;42.680;23.260;2023-12-22T08:02:58;26.20;;;16.87;;
12784;SDS011;6456;42.680;23.260;2023-12-22T08:05:26;23.93;;;16.63;;
12784;SDS011;6456;42.680;23.260;2023-12-22T08:07:55;27.73;;;15.30;;
12784;SDS011;6456;42.680;23.260;2023-12-22T08:10:22;16.47;;;13.20;;
12784;SDS011;6456;42.680;23.260;2023-12-22T08:12:49;19.33;;;14.30;;
12784;SDS011;6456;42.680;23.260;2023-12-22T08:15:21;17.00;;;13.07;;
12784;SDS011;6456;42.680;23.260;2023-12-22T08:17:48;22.33;;;14.50;;
12784;SDS011;6456;42.680;23.260;2023-12-22T08:20:16;17.73;;;13.07;;
12784;SDS011;6456;42.680;23.260;2023-12-22T08:22:46;16.20;;;12.90;;
12784;SDS011;6456;42.680;23.260;2023-12-22T08:25:13;17.63;;;13.53;;
12784;SDS011;6456;42.680;23.260;2023-12-22T08:27:40;22.33;;;15.03;;
12784;SDS011;6456;42.680;23.260;2023-12-22T08:30:07;24.33;;;15.27;;
12784;SDS011;6456;42.680;23.260;2023-12-22T08:32:35;20.33;;;15.53;;
12784;SDS011;6456;42.680;23.260;2023-12-22T08:35:02;19.73;;;14.83;;
12784;SDS011;6456;42.680;23.260;2023-12-22T08:37:30;21.27;;;16.20;;
12784;SDS011;6456;42.680;23.260;2023-12-22T08:39:58;50.27;;;30.67;;
12784;SDS011;6456;42.680;23.260;2023-12-22T08:42:25;22.27;;;16.80;;
12784;SDS011;6456;42.680;23.260;2023-12-22T08:44:52;22.63;;;16.60;;
12784;SDS011;6456;42.680;23.260;2023-12-22T08:47:19;19.77;;;15.23;;
12784;SDS011;6456;42.680;23.260;2023-12-22T08:49:46;25.07;;;17.20;;
12784;SDS011;6456;42.680;23.260;2023-12-22T08:52:13;21.67;;;16.13;;
12784;SDS011;6456;42.680;23.260;2023-12-22T08:54:41;21.03;;;16.57;;
12784;SDS011;6456;42.680;23.260;2023-12-22T08:57:11;22.93;;;17.10;;
12784;SDS011;6456;42.680;23.260;2023-12-22T08:59:38;22.20;;;16.07;;
12784;SDS011;6456;42.680;23.260;2023-12-22T09:02:05;23.13;;;16.97;;
12784;SDS011;6456;42.680;23.260;2023-12-22T09:04:32;26.60;;;20.17;;
12784;SDS011;6456;42.680;23.260;2023-12-22T09:06:59;32.53;;;22.77;;
12784;SDS011;6456;42.680;23.260;2023-12-22T09:09:26;32.93;;;21.07;;
12784;SDS011;6456;42.680;23.260;2023-12-22T09:11:53;36.37;;;26.93;;
12784;SDS011;6456;42.680;23.260;2023-12-22T09:14:21;32.33;;;23.83;;
12784;SDS011;6456;42.680;23.260;2023-12-22T09:16:48;36.00;;;26.17;;
12784;SDS011;6456;42.680;23.260;2023-12-22T09:19:15;36.90;;;27.20;;
12784;SDS011;6456;42.680;23.260;2023-12-22T09:21:42;32.17;;;21.70;;
12784;SDS011;6456;42.680;23.260;2023-12-22T09:24:10;24.33;;;15.83;;
12784;SDS011;6456;42.680;23.260;2023-12-22T09:29:29;9.90;;;6.87;;
12784;SDS011;6456;42.680;23.260;2023-12-22T09:31:56;11.37;;;7.20;;
12784;SDS011;6456;42.680;23.260;2023-12-22T09:34:25;6.23;;;5.20;;
12784;SDS011;6456;42.680;23.260;2023-12-22T09:36:52;4.83;;;4.33;;
12784;SDS011;6456;42.680;23.260;2023-12-22T09:39:19;2.87;;;2.57;;
12784;SDS011;6456;42.680;23.260;2023-12-22T09:41:47;2.23;;;2.03;;
12784;SDS011;6456;42.680;23.260;2023-12-22T09:44:15;2.67;;;2.47;;
12784;SDS011;6456;42.680;23.260;2023-12-22T09:46:47;2.57;;;2.10;;
12784;SDS011;6456;42.680;23.260;2023-12-22T09:49:15;4.83;;;3.07;;
12784;SDS011;6456;42.680;23.260;2023-12-22T09:51:45;3.90;;;2.90;;
12784;SDS011;6456;42.680;23.260;2023-12-22T09:54:16;9.30;;;3.20;;
12784;SDS011;6456;42.680;23.260;2023-12-22T09:56:44;2.80;;;2.43;;
12784;SDS011;6456;42.680;23.260;2023-12-22T09:59:12;3.60;;;2.47;;
12784;SDS011;6456;42.680;23.260;2023-12-22T10:01:40;2.43;;;2.13;;
12784;SDS011;6456;42.680;23.260;2023-12-22T10:04:12;3.43;;;2.50;;
12784;SDS011;6456;42.680;23.260;2023-12-22T10:06:39;4.30;;;3.90;;
12784;SDS011;6456;42.680;23.260;2023-12-22T10:09:07;3.73;;;2.97;;
12784;SDS011;6456;42.680;23.260;2023-12-22T10:11:36;2.90;;;2.60;;
12784;SDS011;6456;42.680;23.260;2023-12-22T10:14:04;3.20;;;2.90;;
12784;SDS011;6456;42.680;23.260;2023-12-22T10:16:32;2.47;;;2.27;;
12784;SDS011;6456;42.680;23.260;2023-12-22T10:18:59;4.17;;;2.63;;
12784;SDS011;6456;42.680;23.260;2023-12-22T10:21:28;2.87;;;2.57;;
12784;SDS011;6456;42.680;23.260;2023-12-22T10:23:56;5.80;;;3.67;;
12784;SDS011;6456;42.680;23.260;2023-12-22T10:26:23;5.17;;;4.20;;
12784;SDS011;6456;42.680;23.260;2023-12-22T10:28:50;6.43;;;5.40;;
12784;SDS011;6456;42.680;23.260;2023-12-22T10:31:20;7.27;;;5.53;;
12784;SDS011;6456;42.680;23.260;2023-12-22T10:33:50;8.73;;;5.90;;
12784;SDS011;6456;42.680;23.260;2023-12-22T10:36:19;5.10;;;3.83;;
12784;SDS011;6456;42.680;23.260;2023-12-22T10:38:48;2.70;;;2.50;;
12784;SDS011;6456;42.680;23.260;2023-12-22T10:41:15;3.20;;;2.13;;
12784;SDS011;6456;42.680;23.260;2023-12-22T10:43:43;1.70;;;1.60;;
12784;SDS011;6456;42.680;23.260;2023-12-22T10:46:14;2.07;;;1.43;;
12784;SDS011;6456;42.680;23.260;2023-12-22T10:48:41;1.80;;;1.40;;
12784;SDS011;6456;42.680;23.260;2023-12-22T10:51:09;1.33;;;1.20;;
12784;SDS011;6456;42.680;23.260;2023-12-22T10:53:40;2.33;;;1.20;;
12784;SDS011;6456;42.680;23.260;2023-12-22T10:56:09;1.20;;;1.20;;
12784;SDS011;6456;42.680;23.260;2023-12-22T10:58:37;1.30;;;1.20;;
12784;SDS011;6456;42.680;23.260;2023-12-22T11:01:04;1.20;;;1.10;;
12784;SDS011;6456;42.680;23.260;2023-12-22T11:03:33;1.30;;;1.10;;
12784;SDS011;6456;42.680;23.260;2023-12-22T11:06:05;0.90;;;0.90;;
12784;SDS011;6456;42.680;23.260;2023-12-22T11:08:37;0.90;;;0.90;;
12784;SDS011;6456;42.680;23.260;2023-12-22T11:11:08;1.20;;;1.10;;
12784;SDS011;6456;42.680;23.260;2023-12-22T11:13:43;1.30;;;1.20;;
12784;SDS011;6456;42.680;23.260;2023-12-22T11:16:10;1.03;;;1.03;;
12784;SDS011;6456;42.680;23.260;2023-12-22T11:18:38;0.90;;;0.90;;
12784;SDS011;6456;42.680;23.260;2023-12-22T11:21:07;2.60;;;1.00;;
12784;SDS011;6456;42.680;23.260;2023-12-22T11:23:40;1.13;;;1.13;;
12784;SDS011;6456;42.680;23.260;2023-12-22T11:26:15;1.30;;;1.20;;
12784;SDS011;6456;42.680;23.260;2023-12-22T11:28:44;1.27;;;1.07;;
12784;SDS011;6456;42.680;23.260;2023-12-22T11:31:17;1.17;;;1.07;;
12784;SDS011;6456;42.680;23.260;2023-12-22T11:33:47;1.10;;;1.10;;
12784;SDS011;6456;42.680;23.260;2023-12-22T11:36:15;1.20;;;1.10;;
12784;SDS011;6456;42.680;23.260;2023-12-22T11:38:44;0.90;;;0.90;;
12784;SDS011;6456;42.680;23.260;2023-12-22T11:41:12;0.90;;;0.90;;
12784;SDS011;6456;42.680;23.260;2023-12-22T11:43:47;0.63;;;0.63;;
12784;SDS011;6456;42.680;23.260;2023-12-22T11:46:16;1.00;;;1.00;;
12784;SDS011;6456;42.680;23.260;2023-12-22T11:48:50;1.00;;;0.97;;
12784;SDS011;6456;42.680;23.260;2023-12-22T11:51:18;4.30;;;1.63;;
12784;SDS011;6456;42.680;23.260;2023-12-22T11:53:46;1.10;;;1.00;;
12784;SDS011;6456;42.680;23.260;2023-12-22T11:56:13;0.90;;;0.90;;
12784;SDS011;6456;42.680;23.260;2023-12-22T11:58:45;1.10;;;1.10;;
12784;SDS011;6456;42.680;23.260;2023-12-22T12:01:16;1.33;;;1.23;;
12784;SDS011;6456;42.680;23.260;2023-12-22T12:03:48;1.40;;;1.30;;
12784;SDS011;6456;42.680;23.260;2023-12-22T12:06:21;1.30;;;1.20;;
12784;SDS011;6456;42.680;23.260;2023-12-22T12:08:58;1.30;;;1.20;;
12784;SDS011;6456;42.680;23.260;2023-12-22T12:14:31;1.40;;;1.30;;
12784;SDS011;6456;42.680;23.260;2023-12-22T12:17:00;1.33;;;1.10;;
12784;SDS011;6456;42.680;23.260;2023-12-22T12:19:33;1.30;;;1.20;;
12784;SDS011;6456;42.680;23.260;2023-12-22T12:22:00;1.20;;;1.00;;
12784;SDS011;6456;42.680;23.260;2023-12-22T12:24:28;1.10;;;1.00;;
12784;SDS011;6456;42.680;23.260;2023-12-22T12:26:55;1.43;;;1.10;;
12784;SDS011;6456;42.680;23.260;2023-12-22T12:29:23;1.87;;;1.00;;
12784;SDS011;6456;42.680;23.260;2023-12-22T12:31:52;3.07;;;1.27;;
12784;SDS011;6456;42.680;23.260;2023-12-22T12:34:19;1.10;;;1.00;;
12784;SDS011;6456;42.680;23.260;2023-12-22T12:36:49;1.30;;;1.20;;
12784;SDS011;6456;42.680;23.260;2023-12-22T12:39:16;0.87;;;0.83;;
12784;SDS011;6456;42.680;23.260;2023-12-22T12:41:52;2.60;;;0.87;;
12784;SDS011;6456;42.680;23.260;2023-12-22T12:44:21;1.33;;;1.23;;
12784;SDS011;6456;42.680;23.260;2023-12-22T12:46:53;1.00;;;1.00;;
12784;SDS011;6456;42.680;23.260;2023-12-22T12:49:21;1.60;;;1.40;;
12784;SDS011;6456;42.680;23.260;2023-12-22T12:51:52;1.83;;;1.43;;
12784;SDS011;6456;42.680;23.260;2023-12-22T12:54:20;4.87;;;1.40;;
12784;SDS011;6456;42.680;23.260;2023-12-22T12:56:47;1.10;;;1.10;;
12784;SDS011;6456;42.680;23.260;2023-12-22T12:59:16;1.00;;;1.00;;
12784;SDS011;6456;42.680;23.260;2023-12-22T13:01:48;1.53;;;1.40;;
12784;SDS011;6456;42.680;23.260;2023-12-22T13:04:36;1.60;;;1.50;;
12784;SDS011;6456;42.680;23.260;2023-12-22T13:07:07;1.53;;;1.40;;
12784;SDS011;6456;42.680;23.260;2023-12-22T13:09:35;1.67;;;1.50;;
12784;SDS011;6456;42.680;23.260;2023-12-22T13:12:06;2.27;;;1.60;;
12784;SDS011;6456;42.680;23.260;2023-12-22T13:14:36;3.37;;;1.70;;
12784;SDS011;6456;42.680;23.260;2023-12-22T13:17:26;1.70;;;1.60;;
12784;SDS011;6456;42.680;23.260;2023-12-22T13:19:53;1.80;;;1.60;;
12784;SDS011;6456;42.680;23.260;2023-12-22T13:22:26;2.87;;;1.90;;
12784;SDS011;6456;42.680;23.260;2023-12-22T13:24:56;1.77;;;1.63;;
12784;SDS011;6456;42.680;23.260;2023-12-22T13:27:26;2.97;;;2.00;;
12784;SDS011;6456;42.680;23.260;2023-12-22T13:29:55;2.13;;;1.93;;
12784;SDS011;6456;42.680;23.260;2023-12-22T13:32:28;2.07;;;1.87;;
12784;SDS011;6456;42.680;23.260;2023-12-22T13:35:00;1.90;;;1.80;;
12784;SDS011;6456;42.680;23.260;2023-12-22T13:37:28;2.13;;;1.77;;
12784;SDS011;6456;42.680;23.260;2023-12-22T13:39:57;2.77;;;1.90;;
12784;SDS011;6456;42.680;23.260;2023-12-22T13:42:24;2.83;;;1.97;;
12784;SDS011;6456;42.680;23.260;2023-12-22T13:44:51;3.03;;;2.20;;
12784;SDS011;6456;42.680;23.260;2023-12-22T13:47:19;2.03;;;1.60;;
12784;SDS011;6456;42.680;23.260;2023-12-22T13:49:51;1.90;;;1.80;;
12784;SDS011;6456;42.680;23.260;2023-12-22T13:52:25;1.53;;;1.43;;
12784;SDS011;6456;42.680;23.260;2023-12-22T13:54:53;1.60;;;1.50;;
12784;SDS011;6456;42.680;23.260;2023-12-22T13:57:22;1.30;;;1.20;;
12784;SDS011;6456;42.680;23.260;2023-12-22T13:59:49;1.50;;;1.40;;
12784;SDS011;6456;42.680;23.260;2023-12-22T14:02:19;2.00;;;1.60;;
12784;SDS011;6456;42.680;23.260;2023-12-22T14:04:48;1.73;;;1.47;;
12784;SDS011;6456;42.680;23.260;2023-12-22T14:07:17;1.27;;;1.17;;
12784;SDS011;6456;42.680;23.260;2023-12-22T14:09:44;2.70;;;1.77;;
12784;SDS011;6456;42.680;23.260;2023-12-22T14:12:12;1.90;;;1.70;;
12784;SDS011;6456;42.680;23.260;2023-12-22T14:14:39;1.77;;;1.60;;
12784;SDS011;6456;42.680;23.260;2023-12-22T14:17:06;1.93;;;1.70;;
12784;SDS011;6456;42.680;23.260;2023-12-22T14:19:33;2.50;;;1.70;;
12784;SDS011;6456;42.680;23.260;2023-12-22T14:22:01;2.87;;;1.50;;
12784;SDS011;6456;42.680;23.260;2023-12-22T14:24:28;2.03;;;1.70;;
12784;SDS011;6456;42.680;23.260;2023-12-22T14:26:56;1.90;;;1.63;;
12784;SDS011;6456;42.680;23.260;2023-12-22T14:29:23;2.60;;;1.50;;
12784;SDS011;6456;42.680;23.260;2023-12-22T14:31:50;2.07;;;1.80;;
12784;SDS011;6456;42.680;23.260;2023-12-22T14:34:17;2.03;;;1.70;;
12784;SDS011;6456;42.680;23.260;2023-12-22T14:36:45;2.17;;;1.40;;
12784;SDS011;6456;42.680;23.260;2023-12-22T14:39:13;2.00;;;1.80;;
12784;SDS011;6456;42.680;23.260;2023-12-22T14:41:40;3.90;;;1.83;;
12784;SDS011;6456;42.680;23.260;2023-12-22T14:44:08;1.70;;;1.60;;
12784;SDS011;6456;42.680;23.260;2023-12-22T14:46:38;2.30;;;2.10;;